Time;durP1;ratioP1;P1;durP2;ratioP2;P2;SDS_P1;SDS_P2;PMS_P1;PMS_P2;Temp;Humidity;BMP_temperature;BMP_pressure;BME280_temperature;BME280_humidity;BME280_pressure;Samples;Min_cycle;Max_cycle;Signal;HPM_P1;HPM_P2
2022/10/05 00:01:44;;;;;;;1999.90;999.90;;;;;;;7.93;100.00;95643.22;6260698;22;20469;-67
2022/10/05 00:04:14;;;;;;;1999.90;999.90;;;;;;;7.95;100.00;95648.28;6260818;22;20174;-68
2022/10/05 00:07:00;;;;;;;1999.90;999.90;;;;;;;7.91;100.00;95634.69;6260681;22;20174;-68
2022/10/05 00:09:30;;;;;;;1999.90;999.90;;;;;;;7.89;100.00;95641.63;6260939;22;20395;-67
2022/10/05 00:11:56;;;;;;;1999.90;999.90;;;;;;;7.88;100.00;95632.72;6260628;22;20488;-68
2022/10/05 00:14:21;;;;;;;1999.90;999.90;;;;;;;7.86;100.00;95632.31;6260513;22;20235;-68
2022/10/05 00:16:47;;;;;;;1999.90;999.90;;;;;;;7.85;100.00;95630.75;6286936;22;20170;-69
2022/10/05 00:19:24;;;;;;;1999.90;999.90;;;;;;;7.78;100.00;95633.44;6260584;22;20192;-67
2022/10/05 00:21:49;;;;;;;1999.90;999.90;;;;;;;7.74;100.00;95624.47;6261237;22;20170;-67
2022/10/05 00:24:18;;;;;;;1999.90;999.90;;;;;;;7.72;100.00;95621.34;6260571;22;20232;-67
2022/10/05 00:26:43;;;;;;;1999.90;999.90;;;;;;;7.69;100.00;95611.25;6260407;22;20178;-67
2022/10/05 00:29:20;;;;;;;1999.90;999.90;;;;;;;7.65;100.00;95605.00;6260230;22;20238;-67
2022/10/05 00:31:45;;;;;;;1999.90;999.90;;;;;;;7.62;100.00;95603.06;6260763;22;20178;-67
2022/10/05 00:34:11;;;;;;;1999.90;999.90;;;;;;;7.62;100.00;95594.91;6260316;22;20180;-67
2022/10/05 00:36:38;;;;;;;1999.90;999.90;;;;;;;7.60;100.00;95597.19;6260104;22;20206;-67
2022/10/05 00:39:04;;;;;;;1999.90;999.90;;;;;;;7.59;100.00;95587.50;6260449;22;20176;-67
2022/10/05 00:41:59;;;;;;;1999.90;999.90;;;;;;;7.58;100.00;95577.78;6260181;22;20179;-67
2022/10/05 00:44:32;;;;;;;1999.90;999.90;;;;;;;7.60;100.00;95578.19;6259139;22;20173;-68
2022/10/05 00:47:30;;;;;;;1999.90;999.90;;;;;;;7.62;100.00;95569.66;6260427;22;20175;-68
2022/10/05 00:50:16;;;;;;;1999.90;999.90;;;;;;;7.60;100.00;95567.31;6285744;22;20177;-69
2022/10/05 00:53:27;;;;;;;1999.90;999.90;;;;;;;7.58;100.00;95566.13;6260604;22;20184;-68
2022/10/05 00:56:24;;;;;;;1999.90;999.90;;;;;;;7.55;100.00;95567.69;6237252;22;20182;-68
2022/10/05 00:59:31;;;;;;;1999.90;999.90;;;;;;;7.51;100.00;95566.09;6260418;22;20181;-68
2022/10/05 01:02:12;;;;;;;1999.90;999.90;;;;;;;7.48;100.00;95564.91;6285294;22;20184;-67
2022/10/05 01:04:44;;;;;;;1999.90;999.90;;;;;;;7.49;100.00;95565.69;6260812;22;20205;-67
2022/10/05 01:07:36;;;;;;;1999.90;999.90;;;;;;;7.45;100.00;95562.97;6260507;22;20180;-68
2022/10/05 01:10:14;;;;;;;1999.90;999.90;;;;;;;7.46;100.00;95550.91;6260643;22;20172;-68
2022/10/05 01:12:49;;;;;;;1999.90;999.90;;;;;;;7.48;100.00;95562.19;6260207;22;20178;-69
2022/10/05 01:15:31;;;;;;;1999.90;999.90;;;;;;;7.48;100.00;95562.19;6260106;22;20338;-69
2022/10/05 01:18:13;;;;;;;1999.90;999.90;;;;;;;7.47;100.00;95555.19;6260182;22;20173;-71
2022/10/05 01:20:38;;;;;;;1999.90;999.90;;;;;;;7.42;100.00;95552.84;6260522;22;20216;-71
2022/10/05 01:23:25;;;;;;;1999.90;999.90;;;;;;;7.42;100.00;95541.97;6286265;22;20182;-70
2022/10/05 01:26:24;;;;;;;1999.90;999.90;;;;;;;7.43;100.00;95537.34;6286309;22;20201;-71
2022/10/05 01:29:04;;;;;;;1999.90;999.90;;;;;;;7.46;100.00;95534.63;6285601;22;20190;-71
2022/10/05 01:32:06;;;;;;;1999.90;999.90;;;;;;;7.48;100.00;95518.72;6259974;22;20171;-70
2022/10/05 01:35:00;;;;;;;1999.90;999.90;;;;;;;7.49;100.00;95519.50;6285969;22;20181;-70
2022/10/05 01:37:25;;;;;;;1999.90;999.90;;;;;;;7.53;100.00;95512.13;6285760;22;20178;-70
2022/10/05 01:40:21;;;;;;;1999.90;999.90;;;;;;;7.59;100.00;95513.34;6285925;22;20189;-70
2022/10/05 01:42:54;;;;;;;1999.90;999.90;;;;;;;7.63;100.00;95506.78;6239542;22;20221;-71
2022/10/05 01:45:41;;;;;;;1999.90;999.90;;;;;;;7.66;100.00;95514.16;6260425;22;20489;-70
2022/10/05 01:48:12;;;;;;;1999.90;999.90;;;;;;;7.68;100.00;95514.56;6286030;22;20201;-71
2022/10/05 01:50:52;;;;;;;1999.90;999.90;;;;;;;7.69;100.00;95502.53;6260245;22;20234;-69
2022/10/05 01:53:45;;;;;;;1999.90;999.90;;;;;;;7.68;100.00;95506.41;6259961;22;20171;-70
2022/10/05 01:56:29;;;;;;;1999.90;999.90;;;;;;;7.68;100.00;95517.28;6285817;22;20182;-70
2022/10/05 01:59:21;;;;;;;1999.90;999.90;;;;;;;7.72;100.00;95517.31;6285819;22;20228;-70
2022/10/05 02:02:15;;;;;;;1999.90;999.90;;;;;;;7.69;100.00;95523.50;6260011;22;20192;-70
2022/10/05 02:04:52;;;;;;;1999.90;999.90;;;;;;;7.67;100.00;95526.59;6257121;22;20173;-71
2022/10/05 02:07:42;;;;;;;1999.90;999.90;;;;;;;7.68;100.00;95528.13;6259988;22;20170;-71
2022/10/05 02:10:13;;;;;;;1999.90;999.90;;;;;;;7.63;100.00;95520.38;6260301;22;20197;-70
2022/10/05 02:12:39;;;;;;;1999.90;999.90;;;;;;;7.63;100.00;95531.22;6286082;22;20179;-70
2022/10/05 02:15:16;;;;;;;1999.90;999.90;;;;;;;7.59;100.00;95529.66;6259675;22;20241;-69
2022/10/05 02:17:47;;;;;;;1999.90;999.90;;;;;;;7.57;100.00;95526.56;6260244;22;20173;-70
2022/10/05 02:20:20;;;;;;;1999.90;999.90;;;;;;;7.54;100.00;95525.34;6259965;22;20185;-70
2022/10/05 02:22:50;;;;;;;1999.90;999.90;;;;;;;7.53;100.00;95514.84;6259967;22;20178;-71
2022/10/05 02:25:25;;;;;;;1999.90;999.90;;;;;;;7.52;100.00;95524.19;6259662;22;20180;-71
2022/10/05 02:28:14;;;;;;;1999.90;999.90;;;;;;;7.49;100.00;95509.41;6259955;22;20142;-71
2022/10/05 02:30:50;;;;;;;1999.90;999.90;;;;;;;7.50;100.00;95508.25;6260150;22;20223;-69
2022/10/05 02:33:27;;;;;;;1999.90;999.90;;;;;;;7.51;100.00;95511.75;6260135;22;20226;-70
2022/10/05 02:35:53;;;;;;;1999.90;999.90;;;;;;;7.51;100.00;95504.41;6259895;22;20167;-71
2022/10/05 02:38:34;;;;;;;1999.90;999.90;;;;;;;7.53;100.00;95504.78;6259717;22;20165;-70
2022/10/05 02:41:11;;;;;;;1999.90;999.90;;;;;;;7.54;100.00;95514.47;6259465;22;20186;-71
2022/10/05 02:43:52;;;;;;;1999.90;999.90;;;;;;;7.55;100.00;95518.78;6259897;22;20169;-70
2022/10/05 02:46:36;;;;;;;1999.90;999.90;;;;;;;7.53;100.00;95512.13;6260186;22;20178;-70
2022/10/05 02:49:11;;;;;;;1999.90;999.90;;;;;;;7.53;100.00;95510.22;6284939;22;20164;-69
2022/10/05 02:51:53;;;;;;;1999.90;999.90;;;;;;;7.53;100.00;95512.94;6285098;22;20180;-68
2022/10/05 02:54:33;;;;;;;1999.90;999.90;;;;;;;7.50;100.00;95504.78;6259728;22;20193;-69
2022/10/05 02:57:48;;;;;;;1999.90;999.90;;;;;;;7.47;100.00;95489.97;6285270;22;20173;-69
2022/10/05 03:00:23;;;;;;;1999.90;999.90;;;;;;;7.44;100.00;95501.63;6259765;22;20180;-70
2022/10/05 03:02:51;;;;;;;1999.90;999.90;;;;;;;7.42;100.00;95503.94;6259628;22;20170;-68
2022/10/05 03:05:32;;;;;;;1999.90;999.90;;;;;;;7.46;100.00;95509.41;6285344;22;20207;-70
2022/10/05 03:07:58;;;;;;;1999.90;999.90;;;;;;;7.46;100.00;95510.16;6260370;22;20173;-70
2022/10/05 03:10:44;;;;;;;1999.90;999.90;;;;;;;7.44;100.00;95512.50;6285455;22;20185;-69
2022/10/05 03:13:21;;;;;;;1999.90;999.90;;;;;;;7.43;100.00;95505.50;6260015;22;20607;-69
2022/10/05 03:15:53;;;;;;;1999.90;999.90;;;;;;;7.41;100.00;95515.97;6259407;22;20164;-70
2022/10/05 03:18:43;;;;;;;1999.90;999.90;;;;;;;7.38;100.00;95503.16;6285179;22;20170;-69
2022/10/05 03:21:36;;;;;;;1999.90;999.90;;;;;;;7.32;100.00;95515.53;6259681;22;20229;-69
2022/10/05 03:24:45;;;;;;;1999.90;999.90;;;;;;;7.30;100.00;95507.00;6286601;22;20170;-70
2022/10/05 03:27:39;;;;;;;1999.90;999.90;;;;;;;7.27;100.00;95501.50;6261140;22;20181;-69
2022/10/05 03:30:14;;;;;;;1999.90;999.90;;;;;;;7.24;100.00;95513.91;6286264;22;20169;-68
2022/10/05 03:32:45;;;;;;;1999.90;999.90;;;;;;;7.20;100.00;95520.47;6261322;22;20165;-68
2022/10/05 03:35:18;;;;;;;1999.90;999.90;;;;;;;7.20;100.00;95512.34;6286102;22;20165;-70
2022/10/05 03:37:58;;;;;;;1999.90;999.90;;;;;;;7.18;100.00;95515.44;6261277;22;20198;-69
2022/10/05 03:40:35;;;;;;;1999.90;999.90;;;;;;;7.10;100.00;95519.25;6261015;22;20177;-69
2022/10/05 03:43:28;;;;;;;1999.90;999.90;;;;;;;7.10;100.00;95513.06;6286809;22;20214;-69
2022/10/05 03:46:10;;;;;;;1999.90;999.90;;;;;;;7.12;100.00;95508.03;6286294;22;20174;-69
2022/10/05 03:49:17;;;;;;;1999.90;999.90;;;;;;;7.11;100.00;95509.97;6286257;22;20166;-69
2022/10/05 03:51:52;;;;;;;1999.90;999.90;;;;;;;7.10;100.00;95507.63;6259693;22;20171;-68
2022/10/05 03:54:54;;;;;;;1999.90;999.90;;;;;;;7.09;100.00;95512.28;6260508;22;20184;-70
2022/10/05 03:57:27;;;;;;;1999.90;999.90;;;;;;;7.08;100.00;95508.00;6214046;22;20177;-68
2022/10/05 04:00:18;;;;;;;1999.90;999.90;;;;;;;7.03;100.00;95505.63;6260969;22;20163;-66
2022/10/05 04:02:54;;;;;;;1999.90;999.90;;;;;;;6.98;100.00;95500.56;6261261;22;20181;-66
2022/10/05 04:05:24;;;;;;;1999.90;999.90;;;;;;;6.97;100.00;95499.00;6260411;22;20186;-67
2022/10/05 04:07:57;;;;;;;1999.90;999.90;;;;;;;6.96;100.00;95507.53;6260549;22;20190;-66
2022/10/05 04:10:27;;;;;;;1999.90;999.90;;;;;;;6.95;100.00;95505.97;6260677;22;20179;-67
2022/10/05 04:13:30;;;;;;;1999.90;999.90;;;;;;;6.92;100.00;95504.78;6260533;22;20170;-68
2022/10/05 04:16:38;;;;;;;1999.90;999.90;;;;;;;6.91;100.00;95495.06;6246668;22;20150;-71
2022/10/05 04:19:22;;;;;;;1999.90;999.90;;;;;;;6.91;100.00;95492.38;6249215;22;20181;-72
2022/10/05 04:22:06;;;;;;;1999.90;999.90;;;;;;;6.91;100.00;95489.66;6286158;22;20207;-71
2022/10/05 04:24:36;;;;;;;1999.90;999.90;;;;;;;6.93;100.00;95486.56;6260684;22;20202;-69
2022/10/05 04:27:18;;;;;;;1999.90;999.90;;;;;;;6.92;100.00;95496.63;6285882;22;20156;-69
2022/10/05 04:29:52;;;;;;;1999.90;999.90;;;;;;;6.93;100.00;95487.34;6260227;22;20198;-66
2022/10/05 04:32:43;;;;;;;1999.90;999.90;;;;;;;6.90;100.00;95488.09;6260606;22;20166;-67
2022/10/05 04:35:23;;;;;;;1999.90;999.90;;;;;;;6.89;100.00;95483.84;6286083;22;20208;-68
2022/10/05 04:38:04;;;;;;;1999.90;999.90;;;;;;;6.91;100.00;95495.06;6286054;22;20166;-68
2022/10/05 04:40:48;;;;;;;1999.90;999.90;;;;;;;6.91;100.00;95484.22;6286201;22;20249;-67
2022/10/05 04:43:41;;;;;;;1999.90;999.90;;;;;;;6.88;100.00;95486.94;6285485;22;20170;-67
2022/10/05 04:46:48;;;;;;;1999.90;999.90;;;;;;;6.86;100.00;95488.06;6285606;22;20178;-73
2022/10/05 04:49:28;;;;;;;1999.90;999.90;;;;;;;6.84;100.00;95486.88;6260239;22;20178;-71
2022/10/05 04:52:23;;;;;;;1999.90;999.90;;;;;;;6.83;100.00;95493.47;6260843;22;20149;-70
2022/10/05 04:54:48;;;;;;;1999.90;999.90;;;;;;;6.81;100.00;95501.19;6260500;22;20179;-69
2022/10/05 04:57:28;;;;;;;1999.90;999.90;;;;;;;6.83;100.00;95501.63;6286047;22;20167;-67
2022/10/05 04:59:59;;;;;;;1999.90;999.90;;;;;;;6.83;100.00;95494.25;6260268;22;20241;-69
2022/10/05 05:02:36;;;;;;;1999.90;999.90;;;;;;;6.84;100.00;95500.44;6260710;22;20159;-68
2022/10/05 05:05:05;;;;;;;1999.90;999.90;;;;;;;6.86;100.00;95503.59;6285681;22;20186;-68
2022/10/05 05:07:48;;;;;;;1999.90;999.90;;;;;;;6.86;100.00;95498.91;6285516;22;20171;-68
2022/10/05 05:10:52;;;;;;;1999.90;999.90;;;;;;;6.86;100.00;95509.00;6286129;22;20170;-68
2022/10/05 05:13:27;;;;;;;1999.90;999.90;;;;;;;6.84;100.00;95505.88;6259996;22;20237;-68
2022/10/05 05:16:06;;;;;;;1999.90;999.90;;;;;;;6.87;100.00;95521.41;6260844;22;20191;-69
2022/10/05 05:18:56;;;;;;;1999.90;999.90;;;;;;;6.90;100.00;95509.81;6260512;22;20158;-68
2022/10/05 05:21:40;;;;;;;1999.90;999.90;;;;;;;6.93;100.00;95509.06;6260397;22;20252;-68
2022/10/05 05:24:43;;;;;;;1999.90;999.90;;;;;;;6.95;100.00;95512.16;6260160;22;20183;-68
2022/10/05 05:27:36;;;;;;;1999.90;999.90;;;;;;;7.00;100.00;95514.56;6285595;22;20184;-68
2022/10/05 05:30:18;;;;;;;1999.90;999.90;;;;;;;7.04;100.00;95515.34;6259912;22;20167;-68
2022/10/05 05:32:59;;;;;;;1999.90;999.90;;;;;;;7.15;100.00;95518.13;6260606;22;20169;-68
2022/10/05 05:35:27;;;;;;;1999.90;999.90;;;;;;;7.42;100.00;95520.25;6286084;22;20170;-68
2022/10/05 05:38:10;;;;;;;1999.90;999.90;;;;;;;7.92;100.00;95500.31;6285412;22;20167;-68
2022/10/05 05:41:07;;;;;;;1999.90;999.90;;;;;;;8.75;100.00;95492.72;6260484;22;20186;-68
2022/10/05 05:43:55;;;;;;;1999.90;999.90;;;;;;;9.07;100.00;95494.25;6285996;22;20191;-69
2022/10/05 05:46:36;;;;;;;1999.90;999.90;;;;;;;9.22;100.00;95512.13;6260051;22;20179;-68
2022/10/05 05:49:12;;;;;;;1999.90;999.90;;;;;;;9.42;100.00;95509.78;6260445;22;20175;-69
2022/10/05 05:51:44;;;;;;;1999.90;999.90;;;;;;;9.88;100.00;95505.72;6260083;22;20180;-69
2022/10/05 05:54:28;;;;;;;1999.90;999.90;;;;;;;10.69;100.00;95505.34;6260514;22;20188;-68
2022/10/05 05:57:18;;;;;;;1999.90;999.90;;;;;;;11.77;100.00;95491.91;6285324;22;20164;-74
2022/10/05 06:00:04;;;;;;;1999.90;999.90;;;;;;;12.51;100.00;95459.63;6260247;22;20178;-69
2022/10/05 06:02:38;;;;;;;1999.90;999.90;;;;;;;13.30;100.00;95379.22;6260064;22;20183;-70
2022/10/05 06:05:25;;;;;;;1999.90;999.90;;;;;;;14.16;100.00;95296.63;6285636;22;20175;-69
2022/10/05 06:07:52;;;;;;;1999.90;999.90;;;;;;;14.18;100.00;95220.84;6260333;22;20168;-69
2022/10/05 06:10:46;;;;;;;1999.90;999.90;;;;;;;14.64;100.00;95151.72;6260452;22;20168;-68
2022/10/05 06:13:31;;;;;;;1999.90;999.90;;;;;;;15.04;100.00;95111.69;6250710;22;20176;-70
2022/10/05 06:16:20;;;;;;;1999.90;999.90;;;;;;;15.12;100.00;95118.50;6260309;22;20173;-67
2022/10/05 06:18:53;;;;;;;1999.90;999.90;;;;;;;15.38;100.00;95124.84;6245917;22;20213;-67
2022/10/05 06:21:26;;;;;;;1999.90;999.90;;;;;;;16.04;100.00;95108.91;6259943;22;20176;-66
2022/10/05 06:23:59;;;;;;;1999.90;999.90;;;;;;;15.91;100.00;95094.38;6260263;22;20180;-68
2022/10/05 06:27:02;;;;;;;1999.90;999.90;;;;;;;15.83;100.00;95103.31;6259765;22;20141;-67
2022/10/05 06:29:48;;;;;;;1999.90;999.90;;;;;;;15.67;100.00;95101.47;6285304;22;20195;-68
2022/10/05 06:32:14;;;;;;;1999.90;999.90;;;;;;;15.81;100.00;95123.03;6260078;22;20531;-70
2022/10/05 06:35:05;;;;;;;1999.90;999.90;;;;;;;15.82;100.00;95116.31;6285015;22;20168;-69
2022/10/05 06:37:55;;;;;;;1999.90;999.90;;;;;;;16.64;100.00;95117.06;6259834;22;20160;-67
2022/10/05 06:41:00;;;;;;;1999.90;999.90;;;;;;;17.64;100.00;95077.75;6285620;22;20180;-66
2022/10/05 06:43:36;;;;;;;1999.90;999.90;;;;;;;18.45;100.00;95047.44;6259979;22;20184;-75
2022/10/05 06:46:18;;;;;;;1999.90;999.90;;;;;;;18.76;100.00;94879.25;6259455;22;20222;-73
2022/10/05 06:49:05;;;;;;;1999.90;999.90;;;;;;;18.84;100.00;95196.66;6259663;22;20164;-73
2022/10/05 06:51:53;;;;;;;1999.90;999.90;;;;;;;19.29;100.00;95506.09;6285346;22;20175;-72
2022/10/05 06:54:36;;;;;;;1999.90;999.90;;;;;;;19.05;100.00;95616.56;6259558;22;20203;-72
2022/10/05 06:57:26;;;;;;;1999.90;999.90;;;;;;;18.76;100.00;95739.84;6259634;22;20168;-72
2022/10/05 07:00:00;;;;;;;1999.90;999.90;;;;;;;18.84;100.00;95796.50;6285293;22;20180;-74
2022/10/05 07:02:56;;;;;;;1999.90;999.90;;;;;;;18.90;100.00;95778.88;6260075;22;20148;-72
2022/10/05 07:05:50;;;;;;;1999.90;999.90;;;;;;;19.51;100.00;95761.69;6260259;22;20187;-72
2022/10/05 07:08:15;;;;;;;1999.90;999.90;;;;;;;19.75;100.00;95773.88;6259564;22;20164;-73
2022/10/05 07:11:01;;;;;;;1999.90;999.90;;;;;;;20.35;100.00;95791.75;6285150;22;20175;-72
2022/10/05 07:13:36;;;;;;;1999.90;999.90;;;;;;;20.79;100.00;95807.00;6259358;22;20167;-72
2022/10/05 07:16:25;;;;;;;1999.90;999.90;;;;;;;21.64;100.00;95824.38;6285265;22;20190;-69
2022/10/05 07:19:05;;;;;;;1999.90;999.90;;;;;;;22.23;100.00;95851.53;6259248;22;20175;-72
2022/10/05 07:21:38;;;;;;;1999.90;999.90;;;;;;;22.72;100.00;95850.47;6284946;22;20188;-72
2022/10/05 07:24:04;;;;;;;1999.90;999.90;;;;;;;23.04;100.00;95869.19;6258767;22;20183;-71
2022/10/05 07:26:39;;;;;;;1999.90;999.90;;;;;;;23.69;99.50;95878.25;6285142;22;20164;-75
2022/10/05 07:29:16;;;;;;;1999.90;999.90;;;;;;;23.93;95.69;95878.22;6259523;22;20167;-68
2022/10/05 07:32:06;;;;;;;1999.90;999.90;;;;;;;24.71;88.37;95889.56;6259175;22;20145;-67
2022/10/05 07:34:37;;;;;;;1999.90;999.90;;;;;;;24.81;85.73;95896.59;6259661;22;20168;-69
2022/10/05 07:40:09;;;;;;;1999.90;999.90;;;;;;;25.32;80.37;95908.09;6286414;22;20227;-69
2022/10/05 07:42:55;;;;;;;1999.90;999.90;;;;;;;25.77;74.49;95913.00;6259135;22;20164;-68
2022/10/05 07:45:45;;;;;;;1999.90;999.90;;;;;;;26.41;70.96;95913.53;6259369;22;20192;-67
2022/10/05 07:48:34;;;;;;;1999.90;999.90;;;;;;;27.53;64.92;95917.53;6259326;22;20176;-68
2022/10/05 07:51:16;;;;;;;1999.90;999.90;;;;;;;27.36;61.98;95929.94;6198498;22;20179;-69
2022/10/05 07:53:59;;;;;;;1999.90;999.90;;;;;;;27.39;59.76;95926.13;6259203;22;20214;-66
2022/10/05 07:56:32;;;;;;;1999.90;999.90;;;;;;;28.30;53.76;95923.53;6259648;22;20200;-66
2022/10/05 07:59:06;;;;;;;1999.90;999.90;;;;;;;28.80;54.01;95925.72;6259581;22;20160;-67
2022/10/05 08:01:36;;;;;;;1999.90;999.90;;;;;;;29.09;51.49;95930.88;6259431;22;20188;-67
2022/10/05 08:06:37;;;;;;;1999.90;999.90;;;;;;;29.47;48.88;95933.66;6275289;22;20188;-67
2022/10/05 08:09:16;;;;;;;1999.90;999.90;;;;;;;28.89;48.96;95933.88;6250644;22;20177;-71
2022/10/05 08:11:54;;;;;;;1999.90;999.90;;;;;;;28.73;49.03;95937.47;6250887;22;20176;-68
2022/10/05 08:14:44;;;;;;;1999.90;999.90;;;;;;;29.94;47.48;95940.22;6250900;22;20180;-69
2022/10/05 08:17:23;;;;;;;1999.90;999.90;;;;;;;30.44;45.15;95940.78;6250980;22;20184;-69
2022/10/05 08:20:12;;;;;;;1999.90;999.90;;;;;;;30.34;46.61;95945.22;6250766;22;20235;-67
2022/10/05 08:22:44;;;;;;;1999.90;999.90;;;;;;;31.55;41.91;95950.03;6250540;22;20176;-70
2022/10/05 08:25:37;;;;;;;1999.90;999.90;;;;;;;31.58;42.95;95949.00;6250935;22;20180;-70
2022/10/05 08:28:19;;;;;;;1999.90;999.90;;;;;;;31.22;40.96;95953.13;6250367;22;20172;-72
2022/10/05 08:30:54;;;;;;;1999.90;999.90;;;;;;;31.67;39.08;95957.13;6250658;22;20245;-67
2022/10/05 08:33:23;;;;;;;1999.90;999.90;;;;;;;31.61;39.85;95956.38;6250335;22;20220;-67
2022/10/05 08:36:11;;;;;;;1999.90;999.90;;;;;;;32.24;40.60;95956.00;6251149;22;20181;-71
2022/10/05 08:38:37;;;;;;;1999.90;999.90;;;;;;;31.87;37.38;95968.00;6251214;22;20172;-70
2022/10/05 08:41:44;;;;;;;1999.90;999.90;;;;;;;31.73;37.75;95969.13;6250674;22;20285;-67
2022/10/05 08:44:29;;;;;;;1999.90;999.90;;;;;;;31.38;38.69;95959.97;6250328;22;20187;-68
2022/10/05 08:47:06;;;;;;;1999.90;999.90;;;;;;;31.13;39.47;95957.06;6250256;22;20184;-68
2022/10/05 08:50:02;;;;;;;1999.90;999.90;;;;;;;30.28;41.00;95958.56;6249978;22;20190;-67
2022/10/05 08:52:32;;;;;;;1999.90;999.90;;;;;;;31.29;40.00;95961.06;6250361;22;20184;-69
2022/10/05 08:55:09;;;;;;;1999.90;999.90;;;;;;;30.60;41.40;95957.63;6277289;22;20224;-69
2022/10/05 08:58:14;;;;;;;1999.90;999.90;;;;;;;30.79;38.87;95955.75;6251254;22;20188;-69
2022/10/05 09:01:00;;;;;;;1999.90;999.90;;;;;;;30.24;38.93;95958.06;6227810;22;20279;-67
2022/10/05 09:03:41;;;;;;;1999.90;999.90;;;;;;;30.69;38.99;95956.56;6250751;22;20271;-69
2022/10/05 09:06:49;;;;;;;1999.90;999.90;;;;;;;30.81;38.22;95958.06;6250368;22;20184;-70
2022/10/05 09:09:29;;;;;;;1999.90;999.90;;;;;;;31.41;37.92;95956.84;6250384;22;20180;-68
2022/10/05 09:12:15;;;;;;;1999.90;999.90;;;;;;;30.59;38.22;95952.53;6250446;22;20211;-68
2022/10/05 09:15:02;;;;;;;1999.90;999.90;;;;;;;30.57;39.70;95952.25;6250716;22;20177;-67
2022/10/05 09:18:06;;;;;;;1999.90;999.90;;;;;;;31.45;39.62;95954.50;6250738;22;20172;-66
2022/10/05 09:20:58;;;;;;;1999.90;999.90;;;;;;;30.61;42.03;95949.94;6276645;22;20180;-66
2022/10/05 09:23:45;;;;;;;1999.90;999.90;;;;;;;30.95;41.40;95948.44;6250854;22;20540;-67
2022/10/05 09:26:41;;;;;;;1999.90;999.90;;;;;;;30.37;41.91;95947.00;6250910;22;20180;-67
2022/10/05 09:29:49;;;;;;;1999.90;999.90;;;;;;;30.62;45.92;95940.94;6250845;22;20176;-68
2022/10/05 09:32:32;;;;;;;1999.90;999.90;;;;;;;31.03;43.58;95940.97;6250699;22;20188;-67
2022/10/05 09:35:19;;;;;;;1999.90;999.90;;;;;;;30.86;46.02;95945.97;6250073;22;20187;-68
2022/10/05 09:38:12;;;;;;;1999.90;999.90;;;;;;;30.99;44.29;95952.53;6249981;22;20191;-66
2022/10/05 09:40:56;;;;;;;1999.90;999.90;;;;;;;30.82;44.44;95945.47;6250046;22;20275;-67
2022/10/05 09:43:47;;;;;;;1999.90;999.90;;;;;;;30.52;43.63;95947.44;6250237;22;20233;-66
2022/10/05 09:46:50;;;;;;;1999.90;999.90;;;;;;;30.24;47.33;95949.63;6250851;22;20188;-70
2022/10/05 09:49:34;;;;;;;1999.90;999.90;;;;;;;29.55;47.15;95940.28;6250240;22;20264;-67
2022/10/05 09:52:24;;;;;;;1999.90;999.90;;;;;;;29.69;46.32;95949.75;6250327;22;20176;-69
2022/10/05 09:55:04;;;;;;;1999.90;999.90;;;;;;;30.00;48.08;95946.59;6277725;22;20175;-69
2022/10/05 09:57:55;;;;;;;1999.90;999.90;;;;;;;29.79;45.75;95942.56;6250649;22;20206;-67
2022/10/05 10:01:00;;;;;;;1999.90;999.90;;;;;;;29.93;46.58;95947.16;6249979;22;20337;-68
2022/10/05 10:03:55;;;;;;;1999.90;999.90;;;;;;;29.95;46.36;95945.34;6250396;22;20183;-65
2022/10/05 10:06:39;;;;;;;1999.90;999.90;;;;;;;29.24;47.73;95942.63;6250250;22;20179;-68
2022/10/05 10:09:25;;;;;;;1999.90;999.90;;;;;;;29.49;47.65;95933.16;6250635;22;20180;-66
2022/10/05 10:12:18;;;;;;;1999.90;999.90;;;;;;;29.39;47.52;95943.13;6250202;22;20180;-68
2022/10/05 10:15:22;;;;;;;1999.90;999.90;;;;;;;28.74;48.93;95939.00;6249813;22;20176;-68
2022/10/05 10:18:12;;;;;;;1999.90;999.90;;;;;;;29.13;52.37;95926.50;6250096;22;20176;-71
2022/10/05 10:21:09;;;;;;;1999.90;999.90;;;;;;;29.67;47.72;95930.56;6249705;22;20231;-69
2022/10/05 10:24:13;;;;;;;1999.90;999.90;;;;;;;29.90;49.08;95936.91;6250052;22;20190;-70
2022/10/05 10:27:11;;;;;;;1999.90;999.90;;;;;;;30.18;46.32;95937.59;6250573;22;20148;-71
2022/10/05 10:29:39;;;;;;;1999.90;999.90;;;;;;;30.18;49.47;95931.94;6249787;22;20176;-70
2022/10/05 10:33:10;;;;;;;1999.90;999.90;;;;;;;30.09;48.21;95935.03;6249670;22;20192;-72
2022/10/05 10:35:49;;;;;;;1999.90;999.90;;;;;;;30.20;50.29;95926.56;6100350;23;20147;-66
2022/10/05 10:38:29;;;;;;;1999.90;999.90;;;;;;;29.76;51.11;95921.06;6124537;23;20207;-68
2022/10/05 10:41:16;;;;;;;1999.90;999.90;;;;;;;29.42;51.86;95931.59;6250212;22;20275;-68
2022/10/05 10:43:48;;;;;;;1999.90;999.90;;;;;;;29.15;53.25;95923.19;6250052;22;20187;-69
2022/10/05 10:46:51;;;;;;;1999.90;999.90;;;;;;;28.75;54.11;95924.41;6250625;22;20185;-67
2022/10/05 10:49:31;;;;;;;1999.90;999.90;;;;;;;28.98;54.72;95919.59;6203963;22;20184;-68
2022/10/05 10:52:09;;;;;;;1999.90;999.90;;;;;;;28.98;53.55;95925.97;6250365;22;20184;-67
2022/10/05 10:55:07;;;;;;;1999.90;999.90;;;;;;;29.38;52.55;95924.69;6249502;22;20183;-66
2022/10/05 10:57:45;;;;;;;1999.90;999.90;;;;;;;29.38;52.56;95919.06;6250157;22;20184;-67
2022/10/05 11:00:43;;;;;;;1999.90;999.90;;;;;;;28.85;53.11;95917.28;6250032;22;20187;-68
2022/10/05 11:03:27;;;;;;;1999.90;999.90;;;;;;;28.38;56.60;95921.75;6199253;22;20184;-72
2022/10/05 11:06:50;;;;;;;1999.90;999.90;;;;;;;28.40;55.76;95920.50;6249419;22;20210;-71
2022/10/05 11:09:36;;;;;;;1999.90;999.90;;;;;;;27.51;57.25;95908.88;6099337;23;20274;-68
2022/10/05 11:12:17;;;;;;;1999.90;999.90;;;;;;;27.06;62.14;95912.59;6124387;23;20191;-70
2022/10/05 11:15:04;;;;;;;1999.90;999.90;;;;;;;26.66;63.01;95900.81;6250081;22;20184;-71
2022/10/05 11:17:49;;;;;;;1999.90;999.90;;;;;;;26.41;65.69;95895.94;6249330;22;20180;-70
2022/10/05 11:20:24;;;;;;;1999.90;999.90;;;;;;;26.39;67.05;95899.25;6250116;22;20180;-70
2022/10/05 11:22:59;;;;;;;1999.90;999.90;;;;;;;26.35;69.12;95893.09;6250497;22;20160;-68
2022/10/05 11:26:11;;;;;;;1999.90;999.90;;;;;;;25.95;70.90;95884.75;6249878;22;20293;-67
2022/10/05 11:28:45;;;;;;;1999.90;999.90;;;;;;;25.82;72.43;95878.72;6249696;22;20208;-67
2022/10/05 11:31:29;;;;;;;1999.90;999.90;;;;;;;25.83;69.90;95885.88;6249450;22;20187;-68
2022/10/05 11:34:19;;;;;;;1999.90;999.90;;;;;;;25.41;74.55;95870.81;6250191;22;20188;-66
2022/10/05 11:36:58;;;;;;;1999.90;999.90;;;;;;;25.39;74.78;95874.09;6249378;22;20206;-70
2022/10/05 11:39:32;;;;;;;1999.90;999.90;;;;;;;25.31;76.90;95862.53;6274789;22;20176;-69
2022/10/05 11:42:34;;;;;;;1999.90;999.90;;;;;;;25.11;79.46;95858.94;6249820;22;20188;-69
2022/10/05 11:45:23;;;;;;;1999.90;999.90;;;;;;;25.18;75.38;95861.31;6278113;22;20592;-68
2022/10/05 11:48:00;;;;;;;1999.90;999.90;;;;;;;25.23;76.79;95863.41;6251246;22;20180;-69
2022/10/05 11:50:47;;;;;;;1999.90;999.90;;;;;;;25.40;80.29;95853.25;6250498;22;20176;-67
2022/10/05 11:53:23;;;;;;;1999.90;999.90;;;;;;;25.28;79.16;95848.75;6251453;22;20204;-68
2022/10/05 11:56:03;;;;;;;1999.90;999.90;;;;;;;25.38;78.42;95844.56;6251102;22;20176;-68
2022/10/05 11:58:34;;;;;;;1999.90;999.90;;;;;;;25.46;79.50;95842.91;6250491;22;20176;-67
2022/10/05 12:01:14;;;;;;;1999.90;999.90;;;;;;;25.36;79.93;95836.66;6251246;22;20193;-67
2022/10/05 12:03:50;;;;;;;1999.90;999.90;;;;;;;25.26;81.37;95834.47;6249841;22;20258;-67
2022/10/05 12:06:44;;;;;;;1999.90;999.90;;;;;;;25.59;79.85;95836.94;6250635;22;20203;-68
2022/10/05 12:09:31;;;;;;;1999.90;999.90;;;;;;;25.52;75.91;95838.16;6250570;22;20223;-69